Terminal Aerodrome Forecast
Issued by NWS

Home | Current Version | Previous Version | Text Only | Print | Product List | Glossary On
Versions: 1 2 3 4 5 6 7 8 9 10 11 12 13 14 15 16 17 18 19 20 21 22 23 24 25 26
000
FTUS42 KGSP 221720
TAFHKY
TAF
KHKY 221720Z 2218/2318 21008G18KT P6SM SCT015 BKN035
     FM230000 19004KT P6SM SCT040
     FM230700 19003KT P6SM BKN017
     FM230900 18003KT 5SM BR BKN013
     FM231200 17003KT 3SM BR BKN007
     FM231500 17005KT P6SM BKN012=

USA.gov is the U.S. government's official web portal to all federal, state and local government web resources and services.